• Join FlightAware (Why Join?)
  • Login
  • US Flag 
03:37AM EDT


 

Airport Tracker/Info


-or-


 

Live Flight TrackerFlight Track Log ✈ JBU56 ✈ 23-Sep-2013 ✈ KIAD - KBOS

Flight Track Log - Related Links

Times and Time Zones

All times are in EDT time to prevent confusion due to time zone crossing. See the JBU56 flight status page for this flight to view local times or setup timezone preferences in your user account.

Time Position Orientation Groundspeed Altitude Reporting Facility
EDT Latitude Longitude Course Direction KTS MPH feet Rate Location/Type
09:05AM 38.9667 -77.5167 90° East 165 190 2,700  Level Potomac TRACON
09:06AM 39.0167 -77.5000 15° North 211 243 4,300 2,340 Climbing Potomac TRACON
09:07AM 39.1822 -77.0565 74° East  Level Estimated
09:07AM 39.0833 -77.4833 11° North 264 304 7,200  Level Potomac TRACON
09:08AM 39.2407 -76.9552 90° East  Level Estimated
09:08AM 39.1333 -77.4000 52° Northeast 292 336 10,000  Level Potomac TRACON
09:09AM 39.2990 -76.8537 76° East  Level Estimated
09:09AM 39.1500 -77.2833 80° East 360 414 10,300  Level Potomac TRACON
09:10AM 39.3573 -76.7521 90° East  Level Estimated
09:10AM 39.1167 -77.1500 108° East 365 420 13,000  Level Potomac TRACON
09:12AM 39.0958 -76.9075 96° East 371 427 17,500 1,620 Climbing Washington Center
09:17AM 39.2340 -76.1490 96° East 435 501 25,200 1,380 Climbing FlightAware
09:18AM 39.2790 -76.0740 52° Northeast 444 511 26,000 1,260 Climbing FlightAware
09:18AM 39.3220 -76.0010 53° Northeast 440 506 26,700 1,200 Climbing FlightAware
09:19AM 39.3740 -75.9150 52° Northeast 450 518 27,500 1,500 Climbing FlightAware
09:19AM 39.3990 -75.8720 53° Northeast 453 521 28,200 960 Climbing FlightAware
09:20AM 39.4450 -75.7960 52° Northeast 451 519 28,400 1,080 Climbing FlightAware
09:21AM 39.4880 -75.7230 53° Northeast 455 524 29,500 1,800 Climbing FlightAware
09:21AM 39.5060 -75.6930 52° Northeast 450 518 29,900 1,200 Climbing FlightAware
09:21AM 39.5540 -75.6120 52° Northeast 454 522 30,500 900 Climbing FlightAware
09:22AM 39.6000 -75.5350 52° Northeast 460 529 31,000 420 Climbing FlightAware
09:23AM 39.6440 -75.4590 53° Northeast 466 536 31,000  Level FlightAware
09:23AM 39.6900 -75.3800 53° Northeast 465 535 31,000  Level FlightAware
09:24AM 39.7340 -75.3060 52° Northeast 466 536 31,000  Level FlightAware
09:24AM 39.7820 -75.2230 53° Northeast 469 540 31,000  Level FlightAware
09:25AM 39.8230 -75.1540 52° Northeast 467 537 31,000  Level FlightAware
09:26AM 39.8850 -75.0460 53° Northeast 465 535 31,000  Level FlightAware
09:26AM 39.9400 -74.9530 52° Northeast 469 540 31,000  Level FlightAware
09:27AM 39.9790 -74.8850 53° Northeast 469 540 31,000  Level FlightAware
09:28AM 40.0190 -74.8160 53° Northeast 469 540 31,000  Level FlightAware
09:28AM 40.0600 -74.7450 53° Northeast 469 540 31,000  Level FlightAware
09:29AM 40.1000 -74.6750 53° Northeast 469 540 31,000  Level FlightAware
09:29AM 40.1390 -74.6060 54° Northeast 469 540 31,000  Level FlightAware
09:30AM 40.1790 -74.5370 53° Northeast 469 540 31,000  Level FlightAware
09:31AM 40.2190 -74.4670 53° Northeast 469 540 31,000  Level FlightAware
09:31AM 40.2600 -74.3960 53° Northeast 469 540 31,000  Level FlightAware
09:32AM 40.3000 -74.3260 53° Northeast 469 540 31,000  Level FlightAware
09:32AM 40.3400 -74.2570 53° Northeast 469 540 31,000  Level FlightAware
09:33AM 40.3800 -74.1870 53° Northeast 469 540 31,000  Level FlightAware
09:34AM 40.4200 -74.1170 53° Northeast 469 540 31,000  Level FlightAware
09:34AM 40.4590 -74.0500 53° Northeast 469 540 31,000  Level FlightAware
09:35AM 40.4990 -73.9800 53° Northeast 469 540 31,000  Level FlightAware
09:35AM 40.5400 -73.9080 53° Northeast 469 540 31,000  Level FlightAware
09:36AM 40.5800 -73.8390 53° Northeast 469 540 31,000 -3,660 Level FlightAware
09:37AM 40.8242 -73.4961 53° Northeast 478 550 24,600 -3,300 Descending Boston Center
09:38AM 40.9064 -73.3656 50° Northeast 473 544 23,800 -840 Descending Boston Center
09:39AM 40.9889 -73.2211 53° Northeast 454 522 23,000 -420 Descending Boston Center
09:40AM 41.0564 -73.0869 56° Northeast 449 517 23,000  Level Boston Center
09:41AM 41.1258 -72.9469 57° Northeast 449 517 23,000  Level Boston Center
09:42AM 41.1931 -72.8097 57° Northeast 449 517 23,000  Level Boston Center
09:43AM 41.2581 -72.6719 58° Northeast 438 504 23,000  Level Boston Center
09:44AM 41.3186 -72.5422 58° Northeast 444 511 23,000  Level Boston Center
09:45AM 41.3856 -72.4042 57° Northeast 444 511 23,000  Level Boston Center
09:46AM 41.4583 -72.2572 57° Northeast 444 511 23,000  Level Boston Center
09:47AM 41.5164 -72.1103 62° Northeast 439 505 23,000 -180 Level Boston Center
09:48AM 41.5700 -71.9600 64° Northeast 439 505 22,700 -1,200 Descending Boston Center
09:49AM 41.6150 -71.8069 68° East 439 505 20,600 -2,220 Descending Boston Center
09:50AM 41.6600 -71.6536 69° East 439 505 18,300 -2,400 Descending Boston Center
09:51AM 41.7006 -71.5253 67° East 423 487 16,000 -2,280 Descending Boston Center
09:52AM 41.7475 -71.3939 64° Northeast 402 463 13,800 -2,220 Descending Boston Center
09:53AM 41.7983 -71.2706 61° Northeast 383 441 11,600 -1,560 Descending Boston Center
09:54AM 41.8556 -71.1719 52° Northeast 359 413 10,800 -1,200 Descending Boston Center
09:55AM 41.9067 -71.0844 52° Northeast 323 372 9,200 -1,680 Descending Boston Center
09:56AM 41.9578 -70.9967 52° Northeast 304 350 7,500 -1,620 Descending Boston Center
09:57AM 42.0153 -70.9339 39° Northeast 283 326 6,100 -1,200 Descending Boston Center
09:58AM 42.0772 -70.8850 30° Northeast 268 308 5,100 -1,260 Descending Boston Center
09:59AM 42.1411 -70.8442 25° Northeast 251 289 3,700 -1,080 Descending Boston Center
10:00AM 42.2033 -70.8286 10° North 235 270 3,000 -540 Descending Boston Center
10:01AM 42.2500 -70.8833 319° Northwest 176 203 2,600 -600 Descending KA90
10:02AM 42.2833 -70.9167 324° Northwest 156 180 1,700 -780 Descending KA90
10:03AM 42.3167 -70.9500 324° Northwest 120 138 1,100 -600 Descending KA90
10:04AM 42.3333 -70.9833 304° West 116 133 500 -600 Descending KA90